sensor_id;sensor_type;location;lat;lon;timestamp;P1;durP1;ratioP1;P2;durP2;ratioP2
66575;SDS011;53428;47.686;16.584;2023-04-25T00:00:50;1.45;;;1.17;;
66575;SDS011;53428;47.686;16.584;2023-04-25T00:05:51;1.30;;;1.20;;
66575;SDS011;53428;47.686;16.584;2023-04-25T00:10:50;2.03;;;1.38;;
66575;SDS011;53428;47.686;16.584;2023-04-25T00:15:50;5.07;;;1.60;;
66575;SDS011;53428;47.686;16.584;2023-04-25T00:20:50;1.92;;;1.35;;
66575;SDS011;53428;47.686;16.584;2023-04-25T00:25:50;5.20;;;1.38;;
66575;SDS011;53428;47.686;16.584;2023-04-25T00:30:49;1.70;;;1.60;;
66575;SDS011;53428;47.686;16.584;2023-04-25T00:35:49;2.05;;;1.85;;
66575;SDS011;53428;47.686;16.584;2023-04-25T00:40:48;5.85;;;1.05;;
66575;SDS011;53428;47.686;16.584;2023-04-25T00:45:47;2.08;;;1.45;;
66575;SDS011;53428;47.686;16.584;2023-04-25T00:50:56;1.65;;;1.40;;
66575;SDS011;53428;47.686;16.584;2023-04-25T00:55:57;4.25;;;2.03;;
66575;SDS011;53428;47.686;16.584;2023-04-25T01:00:57;6.10;;;1.40;;
66575;SDS011;53428;47.686;16.584;2023-04-25T01:05:56;3.83;;;1.80;;
66575;SDS011;53428;47.686;16.584;2023-04-25T01:10:56;6.22;;;2.13;;
66575;SDS011;53428;47.686;16.584;2023-04-25T01:15:55;1.38;;;1.27;;
66575;SDS011;53428;47.686;16.584;2023-04-25T01:20:55;2.35;;;1.48;;
66575;SDS011;53428;47.686;16.584;2023-04-25T01:25:54;1.73;;;1.55;;
66575;SDS011;53428;47.686;16.584;2023-04-25T01:30:54;4.60;;;1.55;;
66575;SDS011;53428;47.686;16.584;2023-04-25T01:35:53;1.40;;;1.27;;
66575;SDS011;53428;47.686;16.584;2023-04-25T01:40:53;3.00;;;1.70;;
66575;SDS011;53428;47.686;16.584;2023-04-25T01:45:53;4.45;;;1.80;;
66575;SDS011;53428;47.686;16.584;2023-04-25T01:50:53;3.42;;;1.67;;
66575;SDS011;53428;47.686;16.584;2023-04-25T01:55:52;4.75;;;1.88;;
66575;SDS011;53428;47.686;16.584;2023-04-25T02:00:52;2.33;;;1.83;;
66575;SDS011;53428;47.686;16.584;2023-04-25T02:05:51;5.00;;;1.83;;
66575;SDS011;53428;47.686;16.584;2023-04-25T02:10:50;1.90;;;1.58;;
66575;SDS011;53428;47.686;16.584;2023-04-25T02:15:49;4.72;;;1.80;;
66575;SDS011;53428;47.686;16.584;2023-04-25T02:20:48;2.58;;;1.90;;
66575;SDS011;53428;47.686;16.584;2023-04-25T02:25:48;2.75;;;1.55;;
66575;SDS011;53428;47.686;16.584;2023-04-25T02:30:48;4.78;;;1.98;;
66575;SDS011;53428;47.686;16.584;2023-04-25T02:35:47;5.30;;;2.35;;
66575;SDS011;53428;47.686;16.584;2023-04-25T02:40:46;2.40;;;2.20;;
66575;SDS011;53428;47.686;16.584;2023-04-25T02:45:46;3.85;;;2.00;;
66575;SDS011;53428;47.686;16.584;2023-04-25T02:50:45;2.92;;;2.28;;
66575;SDS011;53428;47.686;16.584;2023-04-25T02:55:44;2.95;;;2.17;;
66575;SDS011;53428;47.686;16.584;2023-04-25T03:00:44;6.20;;;1.88;;
66575;SDS011;53428;47.686;16.584;2023-04-25T03:05:43;5.25;;;2.88;;
66575;SDS011;53428;47.686;16.584;2023-04-25T03:10:44;3.45;;;2.45;;
66575;SDS011;53428;47.686;16.584;2023-04-25T03:15:44;5.50;;;2.33;;
66575;SDS011;53428;47.686;16.584;2023-04-25T03:20:43;3.95;;;2.17;;
66575;SDS011;53428;47.686;16.584;2023-04-25T03:25:43;2.55;;;2.35;;
66575;SDS011;53428;47.686;16.584;2023-04-25T03:30:42;5.28;;;2.17;;
66575;SDS011;53428;47.686;16.584;2023-04-25T03:35:41;6.88;;;2.45;;
66575;SDS011;53428;47.686;16.584;2023-04-25T03:40:41;5.65;;;2.67;;
66575;SDS011;53428;47.686;16.584;2023-04-25T03:45:40;3.88;;;2.55;;
66575;SDS011;53428;47.686;16.584;2023-04-25T03:50:39;3.03;;;2.70;;
66575;SDS011;53428;47.686;16.584;2023-04-25T03:55:38;4.55;;;3.13;;
66575;SDS011;53428;47.686;16.584;2023-04-25T04:00:38;4.85;;;3.20;;
66575;SDS011;53428;47.686;16.584;2023-04-25T04:05:38;4.88;;;2.83;;
66575;SDS011;53428;47.686;16.584;2023-04-25T04:10:39;3.22;;;2.80;;
66575;SDS011;53428;47.686;16.584;2023-04-25T04:15:38;3.90;;;2.90;;
66575;SDS011;53428;47.686;16.584;2023-04-25T04:20:37;4.20;;;2.80;;
66575;SDS011;53428;47.686;16.584;2023-04-25T04:25:37;3.25;;;2.30;;
66575;SDS011;53428;47.686;16.584;2023-04-25T04:30:36;6.18;;;2.80;;
66575;SDS011;53428;47.686;16.584;2023-04-25T04:35:36;5.03;;;3.35;;
66575;SDS011;53428;47.686;16.584;2023-04-25T04:40:35;9.25;;;3.00;;
66575;SDS011;53428;47.686;16.584;2023-04-25T04:45:34;6.07;;;2.85;;
66575;SDS011;53428;47.686;16.584;2023-04-25T04:50:34;5.85;;;2.88;;
66575;SDS011;53428;47.686;16.584;2023-04-25T04:55:34;5.80;;;2.35;;
66575;SDS011;53428;47.686;16.584;2023-04-25T05:00:33;2.67;;;2.15;;
66575;SDS011;53428;47.686;16.584;2023-04-25T05:05:33;3.80;;;2.70;;
66575;SDS011;53428;47.686;16.584;2023-04-25T05:10:32;3.95;;;3.03;;
66575;SDS011;53428;47.686;16.584;2023-04-25T05:15:31;4.00;;;3.55;;
66575;SDS011;53428;47.686;16.584;2023-04-25T05:20:30;4.10;;;3.05;;
66575;SDS011;53428;47.686;16.584;2023-04-25T05:25:29;4.68;;;2.80;;
66575;SDS011;53428;47.686;16.584;2023-04-25T05:30:29;7.65;;;3.33;;
66575;SDS011;53428;47.686;16.584;2023-04-25T05:35:28;4.20;;;2.95;;
66575;SDS011;53428;47.686;16.584;2023-04-25T05:40:27;7.82;;;3.42;;
66575;SDS011;53428;47.686;16.584;2023-04-25T05:45:26;7.80;;;3.65;;
66575;SDS011;53428;47.686;16.584;2023-04-25T05:50:26;6.38;;;3.65;;
66575;SDS011;53428;47.686;16.584;2023-04-25T05:55:25;5.28;;;3.50;;
66575;SDS011;53428;47.686;16.584;2023-04-25T06:00:24;7.25;;;4.05;;
66575;SDS011;53428;47.686;16.584;2023-04-25T06:05:23;8.30;;;3.00;;
66575;SDS011;53428;47.686;16.584;2023-04-25T06:10:23;8.73;;;3.80;;
66575;SDS011;53428;47.686;16.584;2023-04-25T06:15:22;6.22;;;3.70;;
66575;SDS011;53428;47.686;16.584;2023-04-25T06:20:21;4.25;;;3.40;;
66575;SDS011;53428;47.686;16.584;2023-04-25T06:25:22;4.07;;;2.55;;
66575;SDS011;53428;47.686;16.584;2023-04-25T06:30:22;6.85;;;3.35;;
66575;SDS011;53428;47.686;16.584;2023-04-25T06:35:24;4.78;;;3.17;;
66575;SDS011;53428;47.686;16.584;2023-04-25T06:40:23;6.80;;;3.15;;
66575;SDS011;53428;47.686;16.584;2023-04-25T06:45:22;5.68;;;3.05;;
66575;SDS011;53428;47.686;16.584;2023-04-25T06:50:21;3.95;;;2.92;;
66575;SDS011;53428;47.686;16.584;2023-04-25T06:55:21;4.25;;;2.38;;
66575;SDS011;53428;47.686;16.584;2023-04-25T07:00:20;3.90;;;2.70;;
66575;SDS011;53428;47.686;16.584;2023-04-25T07:05:19;7.78;;;2.50;;
66575;SDS011;53428;47.686;16.584;2023-04-25T07:10:19;2.10;;;1.85;;
66575;SDS011;53428;47.686;16.584;2023-04-25T07:15:20;2.30;;;2.10;;
66575;SDS011;53428;47.686;16.584;2023-04-25T07:20:19;2.33;;;2.13;;
66575;SDS011;53428;47.686;16.584;2023-04-25T07:25:18;3.72;;;2.20;;
66575;SDS011;53428;47.686;16.584;2023-04-25T07:30:18;2.63;;;1.88;;
66575;SDS011;53428;47.686;16.584;2023-04-25T07:35:17;2.10;;;1.90;;
66575;SDS011;53428;47.686;16.584;2023-04-25T07:40:17;2.70;;;1.98;;
66575;SDS011;53428;47.686;16.584;2023-04-25T07:45:16;3.40;;;2.00;;
66575;SDS011;53428;47.686;16.584;2023-04-25T07:50:15;2.50;;;1.90;;
66575;SDS011;53428;47.686;16.584;2023-04-25T07:55:14;4.22;;;2.28;;
66575;SDS011;53428;47.686;16.584;2023-04-25T08:00:14;2.63;;;2.00;;
66575;SDS011;53428;47.686;16.584;2023-04-25T08:05:13;4.05;;;2.10;;
66575;SDS011;53428;47.686;16.584;2023-04-25T08:10:13;6.78;;;2.20;;
66575;SDS011;53428;47.686;16.584;2023-04-25T08:15:13;2.42;;;1.58;;
66575;SDS011;53428;47.686;16.584;2023-04-25T08:20:12;3.67;;;1.65;;
66575;SDS011;53428;47.686;16.584;2023-04-25T08:25:11;1.98;;;1.80;;
66575;SDS011;53428;47.686;16.584;2023-04-25T08:30:11;3.55;;;1.90;;
66575;SDS011;53428;47.686;16.584;2023-04-25T08:35:10;2.90;;;2.03;;
66575;SDS011;53428;47.686;16.584;2023-04-25T08:40:13;2.83;;;1.70;;
66575;SDS011;53428;47.686;16.584;2023-04-25T08:45:13;4.43;;;1.88;;
66575;SDS011;53428;47.686;16.584;2023-04-25T08:50:12;3.83;;;1.92;;
66575;SDS011;53428;47.686;16.584;2023-04-25T08:55:12;2.10;;;1.52;;
66575;SDS011;53428;47.686;16.584;2023-04-25T09:00:12;10.10;;;1.92;;
66575;SDS011;53428;47.686;16.584;2023-04-25T09:05:13;2.78;;;1.73;;
66575;SDS011;53428;47.686;16.584;2023-04-25T09:10:13;3.33;;;2.13;;
66575;SDS011;53428;47.686;16.584;2023-04-25T09:15:12;1.98;;;1.67;;
66575;SDS011;53428;47.686;16.584;2023-04-25T09:20:12;1.80;;;1.67;;
66575;SDS011;53428;47.686;16.584;2023-04-25T09:25:12;4.88;;;1.63;;
66575;SDS011;53428;47.686;16.584;2023-04-25T09:30:13;2.08;;;1.27;;
66575;SDS011;53428;47.686;16.584;2023-04-25T09:35:23;5.53;;;2.08;;
66575;SDS011;53428;47.686;16.584;2023-04-25T09:40:25;1.85;;;1.30;;
66575;SDS011;53428;47.686;16.584;2023-04-25T09:45:24;7.88;;;1.77;;
66575;SDS011;53428;47.686;16.584;2023-04-25T09:50:24;2.75;;;1.30;;
66575;SDS011;53428;47.686;16.584;2023-04-25T09:55:23;4.20;;;1.42;;
66575;SDS011;53428;47.686;16.584;2023-04-25T10:00:24;3.65;;;1.40;;
66575;SDS011;53428;47.686;16.584;2023-04-25T10:05:24;2.47;;;1.20;;
66575;SDS011;53428;47.686;16.584;2023-04-25T10:10:24;1.60;;;1.23;;
66575;SDS011;53428;47.686;16.584;2023-04-25T10:15:26;1.33;;;1.20;;
66575;SDS011;53428;47.686;16.584;2023-04-25T10:20:26;1.48;;;1.23;;
66575;SDS011;53428;47.686;16.584;2023-04-25T10:25:25;4.13;;;1.92;;
66575;SDS011;53428;47.686;16.584;2023-04-25T10:30:25;5.32;;;1.25;;
66575;SDS011;53428;47.686;16.584;2023-04-25T10:35:27;1.98;;;1.25;;
66575;SDS011;53428;47.686;16.584;2023-04-25T10:40:28;2.58;;;1.33;;
66575;SDS011;53428;47.686;16.584;2023-04-25T10:45:28;3.63;;;1.40;;
66575;SDS011;53428;47.686;16.584;2023-04-25T10:50:36;4.88;;;1.10;;
66575;SDS011;53428;47.686;16.584;2023-04-25T10:55:49;3.45;;;1.85;;
66575;SDS011;53428;47.686;16.584;2023-04-25T11:00:50;7.38;;;1.40;;
66575;SDS011;53428;47.686;16.584;2023-04-25T11:05:49;2.30;;;1.13;;
66575;SDS011;53428;47.686;16.584;2023-04-25T11:10:51;3.13;;;1.50;;
66575;SDS011;53428;47.686;16.584;2023-04-25T11:15:53;3.25;;;1.27;;
66575;SDS011;53428;47.686;16.584;2023-04-25T11:20:52;10.82;;;1.55;;
66575;SDS011;53428;47.686;16.584;2023-04-25T11:25:55;9.82;;;1.45;;
66575;SDS011;53428;47.686;16.584;2023-04-25T11:30:54;2.10;;;1.10;;
66575;SDS011;53428;47.686;16.584;2023-04-25T11:35:54;1.83;;;1.20;;
66575;SDS011;53428;47.686;16.584;2023-04-25T11:40:55;5.15;;;1.67;;
66575;SDS011;53428;47.686;16.584;2023-04-25T11:45:54;2.63;;;1.65;;
66575;SDS011;53428;47.686;16.584;2023-04-25T11:50:53;4.75;;;1.83;;
66575;SDS011;53428;47.686;16.584;2023-04-25T11:55:53;1.33;;;1.23;;
66575;SDS011;53428;47.686;16.584;2023-04-25T12:00:53;2.05;;;1.25;;
66575;SDS011;53428;47.686;16.584;2023-04-25T12:05:52;0.80;;;0.80;;
66575;SDS011;53428;47.686;16.584;2023-04-25T12:10:52;1.33;;;1.23;;
66575;SDS011;53428;47.686;16.584;2023-04-25T12:15:54;1.52;;;1.35;;
66575;SDS011;53428;47.686;16.584;2023-04-25T12:20:54;1.67;;;1.10;;
66575;SDS011;53428;47.686;16.584;2023-04-25T12:25:54;3.92;;;1.20;;
66575;SDS011;53428;47.686;16.584;2023-04-25T12:30:58;2.35;;;0.88;;
66575;SDS011;53428;47.686;16.584;2023-04-25T12:36:05;1.63;;;0.93;;
66575;SDS011;53428;47.686;16.584;2023-04-25T12:41:09;0.73;;;0.70;;
66575;SDS011;53428;47.686;16.584;2023-04-25T12:46:08;1.05;;;0.70;;
66575;SDS011;53428;47.686;16.584;2023-04-25T12:51:08;3.35;;;1.30;;
66575;SDS011;53428;47.686;16.584;2023-04-25T12:56:08;5.13;;;2.35;;
66575;SDS011;53428;47.686;16.584;2023-04-25T13:01:07;2.05;;;1.60;;
66575;SDS011;53428;47.686;16.584;2023-04-25T13:06:11;2.15;;;1.42;;
66575;SDS011;53428;47.686;16.584;2023-04-25T13:11:11;2.17;;;1.92;;
66575;SDS011;53428;47.686;16.584;2023-04-25T13:16:11;3.05;;;1.95;;
66575;SDS011;53428;47.686;16.584;2023-04-25T13:21:12;1.75;;;1.52;;
66575;SDS011;53428;47.686;16.584;2023-04-25T13:26:12;4.65;;;1.80;;
66575;SDS011;53428;47.686;16.584;2023-04-25T13:31:11;2.47;;;1.83;;
66575;SDS011;53428;47.686;16.584;2023-04-25T13:36:12;3.60;;;1.20;;
66575;SDS011;53428;47.686;16.584;2023-04-25T13:41:11;1.77;;;1.10;;
66575;SDS011;53428;47.686;16.584;2023-04-25T13:46:16;0.85;;;0.65;;
66575;SDS011;53428;47.686;16.584;2023-04-25T13:51:16;1.00;;;0.85;;
66575;SDS011;53428;47.686;16.584;2023-04-25T13:56:23;1.02;;;0.73;;
66575;SDS011;53428;47.686;16.584;2023-04-25T14:01:24;4.07;;;1.40;;
66575;SDS011;53428;47.686;16.584;2023-04-25T14:06:23;3.80;;;1.20;;
66575;SDS011;53428;47.686;16.584;2023-04-25T14:11:24;1.33;;;1.10;;
66575;SDS011;53428;47.686;16.584;2023-04-25T14:16:24;2.55;;;1.00;;
66575;SDS011;53428;47.686;16.584;2023-04-25T14:21:24;11.10;;;1.35;;
66575;SDS011;53428;47.686;16.584;2023-04-25T14:26:24;1.10;;;1.00;;
66575;SDS011;53428;47.686;16.584;2023-04-25T14:31:23;3.40;;;1.15;;
66575;SDS011;53428;47.686;16.584;2023-04-25T14:36:22;1.27;;;0.95;;
66575;SDS011;53428;47.686;16.584;2023-04-25T14:41:21;3.60;;;1.40;;
66575;SDS011;53428;47.686;16.584;2023-04-25T14:46:21;0.88;;;0.85;;
66575;SDS011;53428;47.686;16.584;2023-04-25T14:51:22;7.63;;;1.25;;
66575;SDS011;53428;47.686;16.584;2023-04-25T14:56:21;4.53;;;2.70;;
66575;SDS011;53428;47.686;16.584;2023-04-25T15:01:21;1.70;;;1.00;;
66575;SDS011;53428;47.686;16.584;2023-04-25T15:06:21;2.58;;;1.25;;
66575;SDS011;53428;47.686;16.584;2023-04-25T15:11:20;5.90;;;1.40;;
66575;SDS011;53428;47.686;16.584;2023-04-25T15:16:20;1.38;;;1.15;;
66575;SDS011;53428;47.686;16.584;2023-04-25T15:21:20;1.10;;;0.88;;
66575;SDS011;53428;47.686;16.584;2023-04-25T15:26:20;2.78;;;0.93;;
66575;SDS011;53428;47.686;16.584;2023-04-25T15:31:21;1.13;;;0.88;;
66575;SDS011;53428;47.686;16.584;2023-04-25T15:36:20;1.33;;;0.90;;
66575;SDS011;53428;47.686;16.584;2023-04-25T15:41:20;5.30;;;1.00;;
66575;SDS011;53428;47.686;16.584;2023-04-25T15:46:19;1.98;;;1.27;;
66575;SDS011;53428;47.686;16.584;2023-04-25T15:51:22;1.83;;;1.08;;
66575;SDS011;53428;47.686;16.584;2023-04-25T15:56:21;0.85;;;0.85;;
66575;SDS011;53428;47.686;16.584;2023-04-25T16:01:22;1.33;;;0.95;;
66575;SDS011;53428;47.686;16.584;2023-04-25T16:06:24;1.05;;;0.88;;
66575;SDS011;53428;47.686;16.584;2023-04-25T16:11:24;1.38;;;1.20;;
66575;SDS011;53428;47.686;16.584;2023-04-25T16:16:24;2.65;;;1.38;;
66575;SDS011;53428;47.686;16.584;2023-04-25T16:21:24;3.35;;;1.45;;
66575;SDS011;53428;47.686;16.584;2023-04-25T16:26:24;1.92;;;1.70;;
66575;SDS011;53428;47.686;16.584;2023-04-25T16:31:24;3.05;;;1.30;;
66575;SDS011;53428;47.686;16.584;2023-04-25T16:36:24;0.82;;;0.80;;
66575;SDS011;53428;47.686;16.584;2023-04-25T16:41:23;1.02;;;0.93;;
66575;SDS011;53428;47.686;16.584;2023-04-25T16:46:23;0.95;;;0.80;;
66575;SDS011;53428;47.686;16.584;2023-04-25T16:51:22;1.30;;;0.80;;
66575;SDS011;53428;47.686;16.584;2023-04-25T16:56:22;0.60;;;0.60;;
66575;SDS011;53428;47.686;16.584;2023-04-25T17:01:22;0.50;;;0.50;;
66575;SDS011;53428;47.686;16.584;2023-04-25T17:06:21;0.65;;;0.60;;
66575;SDS011;53428;47.686;16.584;2023-04-25T17:11:21;0.73;;;0.70;;
66575;SDS011;53428;47.686;16.584;2023-04-25T17:16:20;0.60;;;0.60;;
66575;SDS011;53428;47.686;16.584;2023-04-25T17:21:23;0.63;;;0.60;;
66575;SDS011;53428;47.686;16.584;2023-04-25T17:26:22;1.08;;;0.93;;
66575;SDS011;53428;47.686;16.584;2023-04-25T17:31:21;3.25;;;1.38;;
66575;SDS011;53428;47.686;16.584;2023-04-25T17:36:21;0.90;;;0.90;;
66575;SDS011;53428;47.686;16.584;2023-04-25T17:41:21;0.80;;;0.70;;
66575;SDS011;53428;47.686;16.584;2023-04-25T17:46:20;0.70;;;0.70;;
66575;SDS011;53428;47.686;16.584;2023-04-25T17:51:20;0.80;;;0.80;;
66575;SDS011;53428;47.686;16.584;2023-04-25T17:56:19;1.00;;;0.90;;
66575;SDS011;53428;47.686;16.584;2023-04-25T18:01:19;0.90;;;0.70;;
66575;SDS011;53428;47.686;16.584;2023-04-25T18:06:19;2.38;;;0.90;;
66575;SDS011;53428;47.686;16.584;2023-04-25T18:11:18;1.58;;;0.80;;
66575;SDS011;53428;47.686;16.584;2023-04-25T18:16:18;1.35;;;0.70;;
66575;SDS011;53428;47.686;16.584;2023-04-25T18:21:18;14.35;;;1.02;;
66575;SDS011;53428;47.686;16.584;2023-04-25T18:26:18;1.70;;;1.25;;
66575;SDS011;53428;47.686;16.584;2023-04-25T18:31:17;1.23;;;0.80;;
66575;SDS011;53428;47.686;16.584;2023-04-25T18:36:21;4.65;;;0.60;;
66575;SDS011;53428;47.686;16.584;2023-04-25T18:41:21;0.65;;;0.65;;
66575;SDS011;53428;47.686;16.584;2023-04-25T18:46:25;0.90;;;0.90;;
66575;SDS011;53428;47.686;16.584;2023-04-25T18:51:26;1.27;;;0.70;;
66575;SDS011;53428;47.686;16.584;2023-04-25T18:56:30;1.48;;;0.73;;
66575;SDS011;53428;47.686;16.584;2023-04-25T19:01:30;0.77;;;0.77;;
66575;SDS011;53428;47.686;16.584;2023-04-25T19:06:30;1.50;;;1.35;;
66575;SDS011;53428;47.686;16.584;2023-04-25T19:11:30;0.93;;;0.82;;
66575;SDS011;53428;47.686;16.584;2023-04-25T19:16:30;3.40;;;0.82;;
66575;SDS011;53428;47.686;16.584;2023-04-25T19:21:36;2.10;;;1.23;;
66575;SDS011;53428;47.686;16.584;2023-04-25T19:26:36;2.03;;;1.27;;
66575;SDS011;53428;47.686;16.584;2023-04-25T19:31:37;1.77;;;0.85;;
66575;SDS011;53428;47.686;16.584;2023-04-25T19:36:37;1.27;;;1.17;;
66575;SDS011;53428;47.686;16.584;2023-04-25T19:41:38;1.20;;;0.90;;
66575;SDS011;53428;47.686;16.584;2023-04-25T19:46:38;1.33;;;0.90;;
66575;SDS011;53428;47.686;16.584;2023-04-25T19:51:37;2.13;;;1.25;;
66575;SDS011;53428;47.686;16.584;2023-04-25T19:56:37;1.27;;;1.17;;
66575;SDS011;53428;47.686;16.584;2023-04-25T20:01:37;2.40;;;0.82;;
66575;SDS011;53428;47.686;16.584;2023-04-25T20:06:36;4.95;;;2.47;;
66575;SDS011;53428;47.686;16.584;2023-04-25T20:11:36;1.25;;;0.88;;
66575;SDS011;53428;47.686;16.584;2023-04-25T20:16:35;1.40;;;1.30;;
66575;SDS011;53428;47.686;16.584;2023-04-25T20:21:35;0.80;;;0.80;;
66575;SDS011;53428;47.686;16.584;2023-04-25T20:26:35;0.80;;;0.80;;
66575;SDS011;53428;47.686;16.584;2023-04-25T20:31:37;1.25;;;1.10;;
66575;SDS011;53428;47.686;16.584;2023-04-25T20:36:36;1.67;;;1.10;;
66575;SDS011;53428;47.686;16.584;2023-04-25T20:41:35;1.92;;;1.30;;
66575;SDS011;53428;47.686;16.584;2023-04-25T20:46:35;1.13;;;0.93;;
66575;SDS011;53428;47.686;16.584;2023-04-25T20:51:35;2.35;;;1.02;;
66575;SDS011;53428;47.686;16.584;2023-04-25T20:56:35;3.38;;;0.85;;
66575;SDS011;53428;47.686;16.584;2023-04-25T21:01:34;1.00;;;0.90;;
66575;SDS011;53428;47.686;16.584;2023-04-25T21:06:34;1.70;;;1.20;;
66575;SDS011;53428;47.686;16.584;2023-04-25T21:11:33;2.20;;;1.33;;
66575;SDS011;53428;47.686;16.584;2023-04-25T21:16:33;1.55;;;1.20;;
66575;SDS011;53428;47.686;16.584;2023-04-25T21:21:33;2.95;;;1.30;;
66575;SDS011;53428;47.686;16.584;2023-04-25T21:26:32;4.55;;;1.65;;
66575;SDS011;53428;47.686;16.584;2023-04-25T21:31:32;1.70;;;1.25;;
66575;SDS011;53428;47.686;16.584;2023-04-25T21:36:31;1.85;;;1.38;;
66575;SDS011;53428;47.686;16.584;2023-04-25T21:41:31;1.98;;;1.20;;
66575;SDS011;53428;47.686;16.584;2023-04-25T21:46:31;1.30;;;1.20;;
66575;SDS011;53428;47.686;16.584;2023-04-25T21:51:30;1.38;;;1.20;;
66575;SDS011;53428;47.686;16.584;2023-04-25T21:56:31;5.22;;;2.03;;
66575;SDS011;53428;47.686;16.584;2023-04-25T22:01:30;1.92;;;1.60;;
66575;SDS011;53428;47.686;16.584;2023-04-25T22:06:30;9.65;;;2.00;;
66575;SDS011;53428;47.686;16.584;2023-04-25T22:11:30;2.13;;;1.92;;
66575;SDS011;53428;47.686;16.584;2023-04-25T22:16:30;2.13;;;1.52;;
66575;SDS011;53428;47.686;16.584;2023-04-25T22:21:30;2.60;;;1.60;;
66575;SDS011;53428;47.686;16.584;2023-04-25T22:26:30;2.85;;;2.05;;
66575;SDS011;53428;47.686;16.584;2023-04-25T22:31:29;2.92;;;2.10;;
66575;SDS011;53428;47.686;16.584;2023-04-25T22:36:28;4.57;;;2.05;;
66575;SDS011;53428;47.686;16.584;2023-04-25T22:41:28;3.83;;;1.98;;
66575;SDS011;53428;47.686;16.584;2023-04-25T22:46:27;3.80;;;2.28;;
66575;SDS011;53428;47.686;16.584;2023-04-25T22:51:27;3.45;;;2.17;;
66575;SDS011;53428;47.686;16.584;2023-04-25T22:56:31;3.92;;;2.38;;
66575;SDS011;53428;47.686;16.584;2023-04-25T23:01:31;3.13;;;2.30;;
66575;SDS011;53428;47.686;16.584;2023-04-25T23:06:30;7.38;;;2.58;;
66575;SDS011;53428;47.686;16.584;2023-04-25T23:11:29;3.65;;;2.50;;
66575;SDS011;53428;47.686;16.584;2023-04-25T23:16:29;3.72;;;2.03;;
66575;SDS011;53428;47.686;16.584;2023-04-25T23:21:28;3.42;;;2.45;;
66575;SDS011;53428;47.686;16.584;2023-04-25T23:26:27;2.67;;;2.40;;
66575;SDS011;53428;47.686;16.584;2023-04-25T23:31:27;5.03;;;2.83;;
66575;SDS011;53428;47.686;16.584;2023-04-25T23:36:27;5.57;;;3.60;;
66575;SDS011;53428;47.686;16.584;2023-04-25T23:41:26;5.10;;;3.47;;
66575;SDS011;53428;47.686;16.584;2023-04-25T23:46:26;7.78;;;3.50;;
66575;SDS011;53428;47.686;16.584;2023-04-25T23:51:26;10.13;;;3.28;;
66575;SDS011;53428;47.686;16.584;2023-04-25T23:56:26;6.13;;;3.28;;
